Hico, West Virginia
Current Conditions -  °F | °C
As of 3:51 AM on Wednesday 22 Oct 2014 (Local Time) from KBKW Reporting Station
Light Rain Light Rain  
Wind Chill: 35°   Ceiling: 800
Heat Index: 41°   Visibility: 7mi
Dew Point: 38°   Wind: 9mph
Humidity: 89%   Direction: 320°NW
Pressure: 30.04"   Gusts: NA
Location:  38.12°N, 81.01°W
Report Text: KBKW 220751Z AUTO 32008KT 7SM -RA BKN008 OVC013 05/03 A3004 RMK AO2 RAB06E22B41 CIG 005V010 SLP180 P0000 T00500033 TSNO
Loading
Personal Weather Stations






























Interactive Weather Map
Tropical Storm Tracking
New forecast layout! Learn more

10-Day Weather Forecast

Advertisements
Track Severe Weather on mobile